sensor_id;sensor_type;location;lat;lon;timestamp;P1;durP1;ratioP1;P2;durP2;ratioP2
70253;SDS011;57649;42.968;1.608;2022-10-26T00:01:26;10.38;;;3.35;;
70253;SDS011;57649;42.968;1.608;2022-10-26T00:03:53;11.95;;;3.20;;
70253;SDS011;57649;42.968;1.608;2022-10-26T00:06:20;10.75;;;2.90;;
70253;SDS011;57649;42.968;1.608;2022-10-26T00:08:50;15.15;;;3.25;;
70253;SDS011;57649;42.968;1.608;2022-10-26T00:11:17;12.05;;;3.63;;
70253;SDS011;57649;42.968;1.608;2022-10-26T00:13:44;13.30;;;3.10;;
70253;SDS011;57649;42.968;1.608;2022-10-26T00:16:11;7.65;;;2.78;;
70253;SDS011;57649;42.968;1.608;2022-10-26T00:18:45;10.52;;;2.92;;
70253;SDS011;57649;42.968;1.608;2022-10-26T00:21:10;13.70;;;2.92;;
70253;SDS011;57649;42.968;1.608;2022-10-26T00:23:36;7.20;;;2.58;;
70253;SDS011;57649;42.968;1.608;2022-10-26T00:26:02;14.75;;;3.00;;
70253;SDS011;57649;42.968;1.608;2022-10-26T00:28:28;15.27;;;3.28;;
70253;SDS011;57649;42.968;1.608;2022-10-26T00:30:54;15.10;;;2.83;;
70253;SDS011;57649;42.968;1.608;2022-10-26T00:33:19;10.68;;;2.47;;
70253;SDS011;57649;42.968;1.608;2022-10-26T00:36:03;10.65;;;2.60;;
70253;SDS011;57649;42.968;1.608;2022-10-26T00:38:28;11.48;;;3.17;;
70253;SDS011;57649;42.968;1.608;2022-10-26T00:40:54;9.27;;;2.78;;
70253;SDS011;57649;42.968;1.608;2022-10-26T00:45:45;7.90;;;3.30;;
70253;SDS011;57649;42.968;1.608;2022-10-26T00:48:22;9.95;;;3.10;;
70253;SDS011;57649;42.968;1.608;2022-10-26T00:50:50;9.57;;;2.47;;
70253;SDS011;57649;42.968;1.608;2022-10-26T00:53:18;10.63;;;2.67;;
70253;SDS011;57649;42.968;1.608;2022-10-26T00:55:44;12.88;;;3.38;;
70253;SDS011;57649;42.968;1.608;2022-10-26T00:58:12;14.80;;;3.42;;
70253;SDS011;57649;42.968;1.608;2022-10-26T01:00:38;10.40;;;2.55;;
70253;SDS011;57649;42.968;1.608;2022-10-26T01:03:06;15.85;;;3.35;;
70253;SDS011;57649;42.968;1.608;2022-10-26T01:05:33;10.82;;;2.88;;
70253;SDS011;57649;42.968;1.608;2022-10-26T01:08:01;11.15;;;3.13;;
70253;SDS011;57649;42.968;1.608;2022-10-26T01:10:27;11.60;;;2.70;;
70253;SDS011;57649;42.968;1.608;2022-10-26T01:12:53;12.10;;;3.42;;
70253;SDS011;57649;42.968;1.608;2022-10-26T01:15:23;11.15;;;3.17;;
70253;SDS011;57649;42.968;1.608;2022-10-26T01:18:07;14.80;;;3.10;;
70253;SDS011;57649;42.968;1.608;2022-10-26T01:20:49;10.70;;;2.85;;
70253;SDS011;57649;42.968;1.608;2022-10-26T01:23:33;10.20;;;2.78;;
70253;SDS011;57649;42.968;1.608;2022-10-26T01:38:32;11.05;;;2.78;;
70253;SDS011;57649;42.968;1.608;2022-10-26T01:44:13;18.98;;;3.15;;
70253;SDS011;57649;42.968;1.608;2022-10-26T01:46:48;13.30;;;2.97;;
70253;SDS011;57649;42.968;1.608;2022-10-26T01:49:16;15.85;;;2.88;;
70253;SDS011;57649;42.968;1.608;2022-10-26T01:51:45;9.68;;;2.20;;
70253;SDS011;57649;42.968;1.608;2022-10-26T01:54:13;11.43;;;2.92;;
70253;SDS011;57649;42.968;1.608;2022-10-26T01:56:42;10.80;;;2.85;;
70253;SDS011;57649;42.968;1.608;2022-10-26T02:04:50;9.90;;;2.55;;
70253;SDS011;57649;42.968;1.608;2022-10-26T02:07:29;17.33;;;3.35;;
70253;SDS011;57649;42.968;1.608;2022-10-26T02:10:51;11.88;;;2.63;;
70253;SDS011;57649;42.968;1.608;2022-10-26T02:15:53;11.55;;;3.05;;
70253;SDS011;57649;42.968;1.608;2022-10-26T02:20:54;9.57;;;2.97;;
70253;SDS011;57649;42.968;1.608;2022-10-26T02:23:30;14.88;;;3.58;;
70253;SDS011;57649;42.968;1.608;2022-10-26T02:25:58;10.93;;;2.78;;
70253;SDS011;57649;42.968;1.608;2022-10-26T02:28:32;10.70;;;2.80;;
70253;SDS011;57649;42.968;1.608;2022-10-26T02:31:00;12.48;;;3.42;;
70253;SDS011;57649;42.968;1.608;2022-10-26T02:33:28;7.53;;;2.90;;
70253;SDS011;57649;42.968;1.608;2022-10-26T02:35:59;10.18;;;2.63;;
70253;SDS011;57649;42.968;1.608;2022-10-26T02:38:28;8.07;;;2.70;;
70253;SDS011;57649;42.968;1.608;2022-10-26T02:40:55;12.88;;;3.05;;
70253;SDS011;57649;42.968;1.608;2022-10-26T02:43:22;12.40;;;3.30;;
70253;SDS011;57649;42.968;1.608;2022-10-26T02:45:56;12.07;;;3.70;;
70253;SDS011;57649;42.968;1.608;2022-10-26T02:48:35;15.40;;;3.28;;
70253;SDS011;57649;42.968;1.608;2022-10-26T02:53:50;14.48;;;3.08;;
70253;SDS011;57649;42.968;1.608;2022-10-26T02:56:26;11.85;;;2.65;;
70253;SDS011;57649;42.968;1.608;2022-10-26T02:58:57;15.52;;;3.63;;
70253;SDS011;57649;42.968;1.608;2022-10-26T03:01:27;11.10;;;3.50;;
70253;SDS011;57649;42.968;1.608;2022-10-26T03:03:57;12.70;;;2.92;;
70253;SDS011;57649;42.968;1.608;2022-10-26T03:06:24;6.90;;;2.80;;
70253;SDS011;57649;42.968;1.608;2022-10-26T03:08:49;10.93;;;3.08;;
70253;SDS011;57649;42.968;1.608;2022-10-26T03:11:15;11.07;;;2.92;;
70253;SDS011;57649;42.968;1.608;2022-10-26T03:13:41;19.35;;;10.20;;
70253;SDS011;57649;42.968;1.608;2022-10-26T03:16:07;19.52;;;6.70;;
70253;SDS011;57649;42.968;1.608;2022-10-26T03:18:33;19.35;;;8.63;;
70253;SDS011;57649;42.968;1.608;2022-10-26T03:20:58;16.63;;;4.85;;
70253;SDS011;57649;42.968;1.608;2022-10-26T03:23:23;13.77;;;3.70;;
70253;SDS011;57649;42.968;1.608;2022-10-26T03:25:49;11.90;;;3.05;;
70253;SDS011;57649;42.968;1.608;2022-10-26T03:28:14;10.93;;;2.55;;
70253;SDS011;57649;42.968;1.608;2022-10-26T03:30:39;12.00;;;3.38;;
70253;SDS011;57649;42.968;1.608;2022-10-26T03:33:05;8.98;;;3.00;;
70253;SDS011;57649;42.968;1.608;2022-10-26T03:35:30;12.07;;;2.70;;
70253;SDS011;57649;42.968;1.608;2022-10-26T03:37:56;15.85;;;3.60;;
70253;SDS011;57649;42.968;1.608;2022-10-26T03:40:21;10.40;;;2.60;;
70253;SDS011;57649;42.968;1.608;2022-10-26T03:42:47;10.15;;;3.08;;
70253;SDS011;57649;42.968;1.608;2022-10-26T03:45:12;15.50;;;2.72;;
70253;SDS011;57649;42.968;1.608;2022-10-26T03:47:41;10.85;;;3.08;;
70253;SDS011;57649;42.968;1.608;2022-10-26T03:50:08;8.20;;;2.75;;
70253;SDS011;57649;42.968;1.608;2022-10-26T03:52:35;14.02;;;4.28;;
70253;SDS011;57649;42.968;1.608;2022-10-26T03:55:00;10.23;;;2.50;;
70253;SDS011;57649;42.968;1.608;2022-10-26T03:57:25;17.90;;;3.03;;
70253;SDS011;57649;42.968;1.608;2022-10-26T03:59:51;15.43;;;3.28;;
70253;SDS011;57649;42.968;1.608;2022-10-26T04:02:16;15.63;;;3.17;;
70253;SDS011;57649;42.968;1.608;2022-10-26T04:04:41;15.48;;;3.17;;
70253;SDS011;57649;42.968;1.608;2022-10-26T04:07:07;11.90;;;3.38;;
70253;SDS011;57649;42.968;1.608;2022-10-26T04:09:32;11.93;;;2.67;;
70253;SDS011;57649;42.968;1.608;2022-10-26T04:11:58;7.97;;;2.33;;
70253;SDS011;57649;42.968;1.608;2022-10-26T04:14:23;10.70;;;3.08;;
70253;SDS011;57649;42.968;1.608;2022-10-26T04:16:48;10.73;;;2.58;;
70253;SDS011;57649;42.968;1.608;2022-10-26T04:19:14;11.80;;;2.92;;
70253;SDS011;57649;42.968;1.608;2022-10-26T04:21:39;19.13;;;3.13;;
70253;SDS011;57649;42.968;1.608;2022-10-26T04:24:05;16.80;;;3.35;;
70253;SDS011;57649;42.968;1.608;2022-10-26T04:26:30;7.65;;;2.67;;
70253;SDS011;57649;42.968;1.608;2022-10-26T04:28:56;14.68;;;3.13;;
70253;SDS011;57649;42.968;1.608;2022-10-26T04:31:21;8.88;;;2.55;;
70253;SDS011;57649;42.968;1.608;2022-10-26T04:33:48;10.93;;;2.90;;
70253;SDS011;57649;42.968;1.608;2022-10-26T04:36:13;16.13;;;3.45;;
70253;SDS011;57649;42.968;1.608;2022-10-26T04:38:38;9.05;;;3.08;;
70253;SDS011;57649;42.968;1.608;2022-10-26T04:41:04;13.90;;;3.78;;
70253;SDS011;57649;42.968;1.608;2022-10-26T04:43:29;10.93;;;3.33;;
70253;SDS011;57649;42.968;1.608;2022-10-26T04:45:55;14.45;;;3.53;;
70253;SDS011;57649;42.968;1.608;2022-10-26T04:48:21;10.75;;;2.80;;
70253;SDS011;57649;42.968;1.608;2022-10-26T04:50:47;10.32;;;2.85;;
70253;SDS011;57649;42.968;1.608;2022-10-26T04:53:13;11.70;;;3.10;;
70253;SDS011;57649;42.968;1.608;2022-10-26T04:55:38;13.13;;;3.55;;
70253;SDS011;57649;42.968;1.608;2022-10-26T04:58:04;10.98;;;2.90;;
70253;SDS011;57649;42.968;1.608;2022-10-26T05:00:29;12.63;;;3.05;;
70253;SDS011;57649;42.968;1.608;2022-10-26T05:03:00;10.05;;;2.90;;
70253;SDS011;57649;42.968;1.608;2022-10-26T05:05:26;15.20;;;2.85;;
70253;SDS011;57649;42.968;1.608;2022-10-26T05:07:52;10.88;;;2.60;;
70253;SDS011;57649;42.968;1.608;2022-10-26T05:10:21;10.30;;;2.65;;
70253;SDS011;57649;42.968;1.608;2022-10-26T05:12:50;18.60;;;3.58;;
70253;SDS011;57649;42.968;1.608;2022-10-26T05:15:20;10.40;;;3.30;;
70253;SDS011;57649;42.968;1.608;2022-10-26T05:17:45;10.32;;;2.60;;
70253;SDS011;57649;42.968;1.608;2022-10-26T05:20:11;31.67;;;15.45;;
70253;SDS011;57649;42.968;1.608;2022-10-26T05:22:38;27.52;;;10.57;;
70253;SDS011;57649;42.968;1.608;2022-10-26T05:25:04;11.57;;;6.47;;
70253;SDS011;57649;42.968;1.608;2022-10-26T05:27:30;19.00;;;4.72;;
70253;SDS011;57649;42.968;1.608;2022-10-26T05:29:56;18.50;;;3.20;;
70253;SDS011;57649;42.968;1.608;2022-10-26T05:32:21;10.02;;;3.22;;
70253;SDS011;57649;42.968;1.608;2022-10-26T05:34:47;11.63;;;3.08;;
70253;SDS011;57649;42.968;1.608;2022-10-26T05:37:12;16.92;;;3.65;;
70253;SDS011;57649;42.968;1.608;2022-10-26T05:39:37;13.77;;;3.30;;
70253;SDS011;57649;42.968;1.608;2022-10-26T05:42:03;12.13;;;3.35;;
70253;SDS011;57649;42.968;1.608;2022-10-26T05:44:28;12.02;;;3.00;;
70253;SDS011;57649;42.968;1.608;2022-10-26T05:46:54;12.23;;;3.03;;
70253;SDS011;57649;42.968;1.608;2022-10-26T05:49:19;15.75;;;3.42;;
70253;SDS011;57649;42.968;1.608;2022-10-26T05:51:44;7.85;;;2.65;;
70253;SDS011;57649;42.968;1.608;2022-10-26T05:54:10;15.95;;;3.70;;
70253;SDS011;57649;42.968;1.608;2022-10-26T05:56:36;13.95;;;2.70;;
70253;SDS011;57649;42.968;1.608;2022-10-26T05:59:04;12.07;;;3.35;;
70253;SDS011;57649;42.968;1.608;2022-10-26T06:06:55;17.00;;;3.42;;
70253;SDS011;57649;42.968;1.608;2022-10-26T06:09:22;13.73;;;3.58;;
70253;SDS011;57649;42.968;1.608;2022-10-26T06:11:48;10.45;;;3.00;;
70253;SDS011;57649;42.968;1.608;2022-10-26T06:14:14;13.00;;;3.05;;
70253;SDS011;57649;42.968;1.608;2022-10-26T06:19:44;7.53;;;2.75;;
70253;SDS011;57649;42.968;1.608;2022-10-26T06:30:40;14.32;;;3.35;;
70253;SDS011;57649;42.968;1.608;2022-10-26T06:33:07;8.18;;;2.80;;
70253;SDS011;57649;42.968;1.608;2022-10-26T06:38:08;9.15;;;3.28;;
70253;SDS011;57649;42.968;1.608;2022-10-26T06:40:38;12.27;;;3.22;;
70253;SDS011;57649;42.968;1.608;2022-10-26T06:43:15;6.57;;;2.60;;
70253;SDS011;57649;42.968;1.608;2022-10-26T06:45:55;10.38;;;3.08;;
70253;SDS011;57649;42.968;1.608;2022-10-26T06:48:32;12.38;;;3.17;;
70253;SDS011;57649;42.968;1.608;2022-10-26T06:51:07;9.50;;;2.75;;
70253;SDS011;57649;42.968;1.608;2022-10-26T06:53:40;14.52;;;3.80;;
70253;SDS011;57649;42.968;1.608;2022-10-26T06:56:14;14.05;;;3.30;;
70253;SDS011;57649;42.968;1.608;2022-10-26T06:58:40;19.80;;;3.88;;
70253;SDS011;57649;42.968;1.608;2022-10-26T07:01:09;15.18;;;3.78;;
70253;SDS011;57649;42.968;1.608;2022-10-26T07:03:35;11.88;;;2.88;;
70253;SDS011;57649;42.968;1.608;2022-10-26T07:06:01;11.30;;;3.47;;
70253;SDS011;57649;42.968;1.608;2022-10-26T07:08:26;9.23;;;3.28;;
70253;SDS011;57649;42.968;1.608;2022-10-26T07:10:52;13.82;;;2.92;;
70253;SDS011;57649;42.968;1.608;2022-10-26T07:13:17;14.18;;;3.40;;
70253;SDS011;57649;42.968;1.608;2022-10-26T07:15:42;12.73;;;3.55;;
70253;SDS011;57649;42.968;1.608;2022-10-26T07:18:08;10.73;;;3.20;;
70253;SDS011;57649;42.968;1.608;2022-10-26T07:20:35;9.20;;;3.47;;
70253;SDS011;57649;42.968;1.608;2022-10-26T07:23:02;12.05;;;2.83;;
70253;SDS011;57649;42.968;1.608;2022-10-26T07:25:31;13.40;;;3.75;;
70253;SDS011;57649;42.968;1.608;2022-10-26T07:27:57;12.60;;;3.13;;
70253;SDS011;57649;42.968;1.608;2022-10-26T07:30:24;14.15;;;3.38;;
70253;SDS011;57649;42.968;1.608;2022-10-26T07:32:56;11.65;;;2.80;;
70253;SDS011;57649;42.968;1.608;2022-10-26T07:35:23;8.77;;;2.80;;
70253;SDS011;57649;42.968;1.608;2022-10-26T07:37:48;7.95;;;2.88;;
70253;SDS011;57649;42.968;1.608;2022-10-26T07:40:14;12.32;;;2.90;;
70253;SDS011;57649;42.968;1.608;2022-10-26T07:42:39;12.68;;;2.90;;
70253;SDS011;57649;42.968;1.608;2022-10-26T07:45:05;11.80;;;3.00;;
70253;SDS011;57649;42.968;1.608;2022-10-26T07:47:30;10.63;;;2.97;;
70253;SDS011;57649;42.968;1.608;2022-10-26T07:49:56;7.85;;;3.30;;
70253;SDS011;57649;42.968;1.608;2022-10-26T07:52:21;16.42;;;4.10;;
70253;SDS011;57649;42.968;1.608;2022-10-26T07:54:47;13.43;;;4.07;;
70253;SDS011;57649;42.968;1.608;2022-10-26T07:57:12;10.57;;;3.00;;
70253;SDS011;57649;42.968;1.608;2022-10-26T07:59:39;15.85;;;3.30;;
70253;SDS011;57649;42.968;1.608;2022-10-26T08:02:05;9.85;;;3.22;;
70253;SDS011;57649;42.968;1.608;2022-10-26T08:04:30;14.85;;;3.42;;
70253;SDS011;57649;42.968;1.608;2022-10-26T08:06:55;13.50;;;3.15;;
70253;SDS011;57649;42.968;1.608;2022-10-26T08:09:21;11.45;;;3.30;;
70253;SDS011;57649;42.968;1.608;2022-10-26T08:11:46;14.20;;;3.80;;
70253;SDS011;57649;42.968;1.608;2022-10-26T08:14:12;12.05;;;3.28;;
70253;SDS011;57649;42.968;1.608;2022-10-26T08:16:37;9.50;;;3.13;;
70253;SDS011;57649;42.968;1.608;2022-10-26T08:19:04;10.23;;;3.20;;
70253;SDS011;57649;42.968;1.608;2022-10-26T08:21:29;12.45;;;2.90;;
70253;SDS011;57649;42.968;1.608;2022-10-26T08:23:55;11.77;;;3.00;;
70253;SDS011;57649;42.968;1.608;2022-10-26T08:26:20;11.82;;;3.72;;
70253;SDS011;57649;42.968;1.608;2022-10-26T08:28:47;12.65;;;3.05;;
70253;SDS011;57649;42.968;1.608;2022-10-26T08:31:13;11.75;;;3.40;;
70253;SDS011;57649;42.968;1.608;2022-10-26T08:33:38;13.23;;;3.28;;
70253;SDS011;57649;42.968;1.608;2022-10-26T08:36:04;9.30;;;3.13;;
70253;SDS011;57649;42.968;1.608;2022-10-26T08:38:30;19.67;;;3.90;;
70253;SDS011;57649;42.968;1.608;2022-10-26T08:40:57;13.25;;;3.65;;
70253;SDS011;57649;42.968;1.608;2022-10-26T08:43:45;11.80;;;4.55;;
70253;SDS011;57649;42.968;1.608;2022-10-26T08:46:18;13.60;;;4.05;;
70253;SDS011;57649;42.968;1.608;2022-10-26T08:49:19;10.63;;;3.30;;
70253;SDS011;57649;42.968;1.608;2022-10-26T08:51:51;14.48;;;3.90;;
70253;SDS011;57649;42.968;1.608;2022-10-26T08:54:39;16.80;;;3.30;;
70253;SDS011;57649;42.968;1.608;2022-10-26T08:57:10;17.03;;;3.77;;
70253;SDS011;57649;42.968;1.608;2022-10-26T08:59:59;15.73;;;4.47;;
70253;SDS011;57649;42.968;1.608;2022-10-26T09:02:28;11.95;;;3.58;;
70253;SDS011;57649;42.968;1.608;2022-10-26T09:04:53;15.15;;;4.22;;
70253;SDS011;57649;42.968;1.608;2022-10-26T09:07:37;8.23;;;3.70;;
70253;SDS011;57649;42.968;1.608;2022-10-26T09:21:07;15.18;;;4.95;;
70253;SDS011;57649;42.968;1.608;2022-10-26T09:23:52;18.92;;;5.65;;
70253;SDS011;57649;42.968;1.608;2022-10-26T09:26:29;14.88;;;5.95;;
70253;SDS011;57649;42.968;1.608;2022-10-26T09:29:00;15.48;;;4.97;;
70253;SDS011;57649;42.968;1.608;2022-10-26T09:31:29;19.27;;;5.43;;
70253;SDS011;57649;42.968;1.608;2022-10-26T09:33:59;11.55;;;4.80;;
70253;SDS011;57649;42.968;1.608;2022-10-26T09:36:29;18.90;;;6.00;;
70253;SDS011;57649;42.968;1.608;2022-10-26T09:41:25;17.38;;;5.13;;
70253;SDS011;57649;42.968;1.608;2022-10-26T09:47:03;15.43;;;5.72;;
70253;SDS011;57649;42.968;1.608;2022-10-26T09:49:27;13.80;;;4.30;;
70253;SDS011;57649;42.968;1.608;2022-10-26T09:52:02;12.90;;;3.75;;
70253;SDS011;57649;42.968;1.608;2022-10-26T09:54:28;16.75;;;4.55;;
70253;SDS011;57649;42.968;1.608;2022-10-26T09:56:54;17.25;;;3.92;;
70253;SDS011;57649;42.968;1.608;2022-10-26T09:59:23;12.77;;;2.60;;
70253;SDS011;57649;42.968;1.608;2022-10-26T10:01:49;16.85;;;4.78;;
70253;SDS011;57649;42.968;1.608;2022-10-26T10:04:16;8.00;;;3.38;;
70253;SDS011;57649;42.968;1.608;2022-10-26T10:06:51;14.88;;;4.18;;
70253;SDS011;57649;42.968;1.608;2022-10-26T10:09:26;20.60;;;5.68;;
70253;SDS011;57649;42.968;1.608;2022-10-26T10:11:53;14.40;;;4.40;;
70253;SDS011;57649;42.968;1.608;2022-10-26T10:14:24;14.57;;;3.60;;
70253;SDS011;57649;42.968;1.608;2022-10-26T10:17:01;17.20;;;4.20;;
70253;SDS011;57649;42.968;1.608;2022-10-26T10:19:29;10.52;;;3.28;;
70253;SDS011;57649;42.968;1.608;2022-10-26T10:22:00;13.18;;;4.30;;
70253;SDS011;57649;42.968;1.608;2022-10-26T10:24:36;10.18;;;3.53;;
70253;SDS011;57649;42.968;1.608;2022-10-26T10:27:07;10.18;;;2.88;;
70253;SDS011;57649;42.968;1.608;2022-10-26T10:34:46;10.40;;;3.53;;
70253;SDS011;57649;42.968;1.608;2022-10-26T10:39:59;10.20;;;3.08;;
70253;SDS011;57649;42.968;1.608;2022-10-26T10:42:46;11.25;;;3.25;;
70253;SDS011;57649;42.968;1.608;2022-10-26T10:45:18;13.02;;;2.92;;
70253;SDS011;57649;42.968;1.608;2022-10-26T10:50:57;15.88;;;2.83;;
70253;SDS011;57649;42.968;1.608;2022-10-26T10:59:27;12.10;;;2.95;;
70253;SDS011;57649;42.968;1.608;2022-10-26T11:01:39;15.88;;;3.08;;
70253;SDS011;57649;42.968;1.608;2022-10-26T11:07:00;13.32;;;3.58;;
70253;SDS011;57649;42.968;1.608;2022-10-26T11:09:29;12.60;;;3.72;;
70253;SDS011;57649;42.968;1.608;2022-10-26T11:12:00;14.68;;;3.65;;
70253;SDS011;57649;42.968;1.608;2022-10-26T11:14:32;10.35;;;3.55;;
70253;SDS011;57649;42.968;1.608;2022-10-26T11:17:12;17.02;;;3.92;;
70253;SDS011;57649;42.968;1.608;2022-10-26T11:22:21;18.85;;;3.60;;
70253;SDS011;57649;42.968;1.608;2022-10-26T11:24:55;16.38;;;4.25;;
70253;SDS011;57649;42.968;1.608;2022-10-26T11:32:36;15.48;;;4.20;;
70253;SDS011;57649;42.968;1.608;2022-10-26T11:38:29;14.40;;;4.57;;
70253;SDS011;57649;42.968;1.608;2022-10-26T11:41:07;18.83;;;5.10;;
70253;SDS011;57649;42.968;1.608;2022-10-26T11:43:46;17.08;;;4.18;;
70253;SDS011;57649;42.968;1.608;2022-10-26T11:46:17;20.98;;;4.90;;
70253;SDS011;57649;42.968;1.608;2022-10-26T11:51:43;15.68;;;4.90;;
70253;SDS011;57649;42.968;1.608;2022-10-26T11:56:57;19.80;;;4.57;;
70253;SDS011;57649;42.968;1.608;2022-10-26T11:59:24;15.93;;;4.00;;
70253;SDS011;57649;42.968;1.608;2022-10-26T12:01:54;15.65;;;3.80;;
70253;SDS011;57649;42.968;1.608;2022-10-26T12:04:24;16.83;;;3.65;;
70253;SDS011;57649;42.968;1.608;2022-10-26T12:06:57;15.40;;;3.13;;
70253;SDS011;57649;42.968;1.608;2022-10-26T12:09:27;12.52;;;3.22;;
70253;SDS011;57649;42.968;1.608;2022-10-26T12:16:59;13.57;;;3.35;;
70253;SDS011;57649;42.968;1.608;2022-10-26T12:19:45;16.95;;;3.63;;
70253;SDS011;57649;42.968;1.608;2022-10-26T12:22:30;18.27;;;4.45;;
70253;SDS011;57649;42.968;1.608;2022-10-26T12:43:46;14.55;;;4.13;;
70253;SDS011;57649;42.968;1.608;2022-10-26T12:51:40;14.65;;;4.35;;
70253;SDS011;57649;42.968;1.608;2022-10-26T12:56:55;18.52;;;5.57;;
70253;SDS011;57649;42.968;1.608;2022-10-26T12:59:29;11.82;;;3.67;;
70253;SDS011;57649;42.968;1.608;2022-10-26T13:07:35;17.38;;;3.67;;
70253;SDS011;57649;42.968;1.608;2022-10-26T13:10:03;12.88;;;4.47;;
70253;SDS011;57649;42.968;1.608;2022-10-26T13:15:28;11.65;;;4.28;;
70253;SDS011;57649;42.968;1.608;2022-10-26T13:20:35;14.32;;;4.15;;
70253;SDS011;57649;42.968;1.608;2022-10-26T13:23:15;16.98;;;4.10;;
70253;SDS011;57649;42.968;1.608;2022-10-26T13:26:00;16.33;;;4.57;;
70253;SDS011;57649;42.968;1.608;2022-10-26T13:28:48;16.67;;;5.57;;
70253;SDS011;57649;42.968;1.608;2022-10-26T13:33:55;17.25;;;6.00;;
70253;SDS011;57649;42.968;1.608;2022-10-26T13:36:28;22.45;;;10.32;;
70253;SDS011;57649;42.968;1.608;2022-10-26T13:39:04;25.05;;;5.18;;
70253;SDS011;57649;42.968;1.608;2022-10-26T13:41:38;17.80;;;4.95;;
70253;SDS011;57649;42.968;1.608;2022-10-26T13:44:16;14.90;;;5.45;;
70253;SDS011;57649;42.968;1.608;2022-10-26T13:46:47;20.60;;;5.90;;
70253;SDS011;57649;42.968;1.608;2022-10-26T13:49:25;13.60;;;4.60;;
70253;SDS011;57649;42.968;1.608;2022-10-26T13:51:54;16.85;;;5.03;;
70253;SDS011;57649;42.968;1.608;2022-10-26T13:54:34;20.20;;;4.82;;
70253;SDS011;57649;42.968;1.608;2022-10-26T13:59:32;17.50;;;5.05;;
70253;SDS011;57649;42.968;1.608;2022-10-26T14:04:52;18.83;;;4.50;;
70253;SDS011;57649;42.968;1.608;2022-10-26T14:07:24;14.25;;;5.50;;
70253;SDS011;57649;42.968;1.608;2022-10-26T14:09:57;11.07;;;4.13;;
70253;SDS011;57649;42.968;1.608;2022-10-26T14:12:23;10.25;;;3.75;;
70253;SDS011;57649;42.968;1.608;2022-10-26T14:17:21;14.55;;;5.05;;
70253;SDS011;57649;42.968;1.608;2022-10-26T14:19:49;16.00;;;4.28;;
70253;SDS011;57649;42.968;1.608;2022-10-26T14:22:20;16.42;;;3.65;;
70253;SDS011;57649;42.968;1.608;2022-10-26T14:24:51;14.65;;;3.92;;
70253;SDS011;57649;42.968;1.608;2022-10-26T14:27:24;17.38;;;5.10;;
70253;SDS011;57649;42.968;1.608;2022-10-26T14:30:13;16.23;;;4.47;;
70253;SDS011;57649;42.968;1.608;2022-10-26T14:32:48;12.38;;;4.30;;
70253;SDS011;57649;42.968;1.608;2022-10-26T14:35:14;16.50;;;4.70;;
70253;SDS011;57649;42.968;1.608;2022-10-26T14:37:57;14.05;;;4.53;;
70253;SDS011;57649;42.968;1.608;2022-10-26T14:40:44;20.77;;;4.35;;
70253;SDS011;57649;42.968;1.608;2022-10-26T14:43:10;12.02;;;3.88;;
70253;SDS011;57649;42.968;1.608;2022-10-26T14:45:45;12.65;;;4.15;;
70253;SDS011;57649;42.968;1.608;2022-10-26T14:48:18;17.13;;;4.22;;
70253;SDS011;57649;42.968;1.608;2022-10-26T14:51:01;11.45;;;4.72;;
70253;SDS011;57649;42.968;1.608;2022-10-26T14:53:37;14.63;;;3.90;;
70253;SDS011;57649;42.968;1.608;2022-10-26T14:56:25;13.70;;;5.28;;
70253;SDS011;57649;42.968;1.608;2022-10-26T14:58:58;16.98;;;5.38;;
70253;SDS011;57649;42.968;1.608;2022-10-26T15:02:35;17.80;;;5.50;;
70253;SDS011;57649;42.968;1.608;2022-10-26T15:04:36;24.58;;;5.88;;
70253;SDS011;57649;42.968;1.608;2022-10-26T15:07:16;19.40;;;5.30;;
70253;SDS011;57649;42.968;1.608;2022-10-26T15:09:46;22.20;;;6.18;;
70253;SDS011;57649;42.968;1.608;2022-10-26T15:12:30;16.33;;;5.35;;
70253;SDS011;57649;42.968;1.608;2022-10-26T15:14:58;16.02;;;5.38;;
70253;SDS011;57649;42.968;1.608;2022-10-26T15:17:35;15.35;;;5.10;;
70253;SDS011;57649;42.968;1.608;2022-10-26T15:20:04;28.73;;;5.90;;
70253;SDS011;57649;42.968;1.608;2022-10-26T15:22:31;15.75;;;5.40;;
70253;SDS011;57649;42.968;1.608;2022-10-26T15:24:58;18.52;;;5.82;;
70253;SDS011;57649;42.968;1.608;2022-10-26T15:27:28;15.10;;;6.00;;
70253;SDS011;57649;42.968;1.608;2022-10-26T15:32:49;15.48;;;5.60;;
70253;SDS011;57649;42.968;1.608;2022-10-26T15:35:24;17.60;;;7.05;;
70253;SDS011;57649;42.968;1.608;2022-10-26T15:37:51;19.02;;;7.32;;
70253;SDS011;57649;42.968;1.608;2022-10-26T15:40:19;27.05;;;7.80;;
70253;SDS011;57649;42.968;1.608;2022-10-26T15:42:49;15.45;;;6.63;;
70253;SDS011;57649;42.968;1.608;2022-10-26T15:45:17;24.02;;;8.88;;
70253;SDS011;57649;42.968;1.608;2022-10-26T15:47:45;23.15;;;8.80;;
70253;SDS011;57649;42.968;1.608;2022-10-26T15:50:44;22.52;;;8.02;;
70253;SDS011;57649;42.968;1.608;2022-10-26T15:53:05;21.45;;;8.98;;
70253;SDS011;57649;42.968;1.608;2022-10-26T15:55:39;30.77;;;9.63;;
70253;SDS011;57649;42.968;1.608;2022-10-26T15:58:04;23.88;;;8.50;;
70253;SDS011;57649;42.968;1.608;2022-10-26T16:00:29;20.88;;;8.50;;
70253;SDS011;57649;42.968;1.608;2022-10-26T16:02:55;19.05;;;8.30;;
70253;SDS011;57649;42.968;1.608;2022-10-26T16:05:21;24.35;;;6.93;;
70253;SDS011;57649;42.968;1.608;2022-10-26T16:07:46;19.60;;;6.45;;
70253;SDS011;57649;42.968;1.608;2022-10-26T16:10:14;16.52;;;6.00;;
70253;SDS011;57649;42.968;1.608;2022-10-26T16:12:44;15.90;;;5.97;;
70253;SDS011;57649;42.968;1.608;2022-10-26T16:15:14;17.85;;;6.22;;
70253;SDS011;57649;42.968;1.608;2022-10-26T16:17:44;14.55;;;6.18;;
70253;SDS011;57649;42.968;1.608;2022-10-26T16:20:20;21.90;;;5.78;;
70253;SDS011;57649;42.968;1.608;2022-10-26T16:22:48;20.38;;;7.18;;
70253;SDS011;57649;42.968;1.608;2022-10-26T16:25:16;19.63;;;6.70;;
70253;SDS011;57649;42.968;1.608;2022-10-26T16:27:43;18.50;;;7.00;;
70253;SDS011;57649;42.968;1.608;2022-10-26T16:30:09;17.27;;;6.03;;
70253;SDS011;57649;42.968;1.608;2022-10-26T16:32:37;23.23;;;7.57;;
70253;SDS011;57649;42.968;1.608;2022-10-26T16:35:02;18.95;;;6.22;;
70253;SDS011;57649;42.968;1.608;2022-10-26T16:37:28;16.48;;;6.20;;
70253;SDS011;57649;42.968;1.608;2022-10-26T16:39:55;14.88;;;5.97;;
70253;SDS011;57649;42.968;1.608;2022-10-26T16:42:21;25.10;;;8.43;;
70253;SDS011;57649;42.968;1.608;2022-10-26T16:44:47;17.50;;;5.90;;
70253;SDS011;57649;42.968;1.608;2022-10-26T16:47:12;18.27;;;7.18;;
70253;SDS011;57649;42.968;1.608;2022-10-26T16:49:37;27.38;;;6.95;;
70253;SDS011;57649;42.968;1.608;2022-10-26T16:52:07;16.00;;;5.75;;
70253;SDS011;57649;42.968;1.608;2022-10-26T16:54:33;13.85;;;5.50;;
70253;SDS011;57649;42.968;1.608;2022-10-26T16:56:58;9.65;;;4.60;;
70253;SDS011;57649;42.968;1.608;2022-10-26T16:59:24;18.80;;;4.85;;
70253;SDS011;57649;42.968;1.608;2022-10-26T17:01:49;15.07;;;5.22;;
70253;SDS011;57649;42.968;1.608;2022-10-26T17:04:14;10.57;;;4.90;;
70253;SDS011;57649;42.968;1.608;2022-10-26T17:06:40;22.00;;;12.82;;
70253;SDS011;57649;42.968;1.608;2022-10-26T17:09:05;13.65;;;5.22;;
70253;SDS011;57649;42.968;1.608;2022-10-26T17:11:31;14.07;;;5.65;;
70253;SDS011;57649;42.968;1.608;2022-10-26T17:13:56;11.05;;;4.13;;
70253;SDS011;57649;42.968;1.608;2022-10-26T17:16:22;14.50;;;4.47;;
70253;SDS011;57649;42.968;1.608;2022-10-26T17:18:48;18.27;;;5.10;;
70253;SDS011;57649;42.968;1.608;2022-10-26T17:21:16;17.15;;;5.20;;
70253;SDS011;57649;42.968;1.608;2022-10-26T17:23:43;17.85;;;4.82;;
70253;SDS011;57649;42.968;1.608;2022-10-26T17:26:18;14.30;;;5.28;;
70253;SDS011;57649;42.968;1.608;2022-10-26T17:28:43;15.50;;;5.65;;
70253;SDS011;57649;42.968;1.608;2022-10-26T17:31:13;12.93;;;5.72;;